Sk Audace — 3EKM6 — position and weather

sailwx.info

Track history (hours):
 
Tides and Currents Weather Stations Pressure Air Temp Water Temp Dewpoint Dewpoint Depression Visibility Wind Speed Wind Dir Waves Ship Positions

Sk Audace

Last reported at 2018-Jun-13 09:38 UTC. Time now 2018-Jun-25 11:53 UTC.
Position S 33°44' E 017°34'.
Warning: this ship's position is 12 days out of date.

Length 293 m; draft 9.7 m.

Type: Tanker. MMSI: 373808000.

Date/timePositionNaut miles runAvg speedWind from/ knotsBaromVisibWave heightAir tempDewpointWater temp
2018-Jun-13 09:38S 33°44' E 017°34'715.0
2018-Jun-13 09:09S 33°50' E 017°39'314.8
2018-Jun-13 08:58S 33°52' E 017°41'715.0
2018-Jun-13 08:30S 33°57' E 017°46'815.1
2018-Jun-13 08:00S 34°03' E 017°52'714.9
2018-Jun-13 07:30S 34°09' E 017°58'714.6
2018-Jun-13 07:00S 34°15' E 018°03'714.8
2018-Jun-13 06:30S 34°21' E 018°09'714.2
2018-Jun-13 06:00S 34°26' E 018°15'714.6
2018-Jun-13 05:30S 34°29' E 018°23'714.8
2018-Jun-13 05:00S 34°32' E 018°31'714.6
2018-Jun-13 04:30S 34°36' E 018°39'714.3
2018-Jun-13 04:00S 34°39' E 018°46'713.9
2018-Jun-13 03:30S 34°42' E 018°54'713.9
2018-Jun-13 03:00S 34°45' E 019°01'714.1
2018-Jun-13 02:31S 34°48' E 019°09'714.5
2018-Jun-13 02:00S 34°51' E 019°17'714.6
2018-Jun-13 01:30S 34°54' E 019°25'  
Track history (hours):
 
Tides and Currents Weather Stations Pressure Air Temp Water Temp Dewpoint Dewpoint Depression Visibility Wind Speed Wind Dir Waves Ship Positions

Sk Audace

Last reported at 2018-Jun-13 09:38 UTC. Time now 2018-Jun-25 11:53 UTC.
Position S 33°44' E 017°34'.
Warning: this ship's position is 12 days out of date.

Length 293 m; draft 9.7 m.

Type: Tanker. MMSI: 373808000.

Date/timePositionNaut miles runAvg speedWind from/ knotsBaromVisibWave heightAir tempDewpointWater temp
2018-Jun-13 09:38S 33°44' E 017°34'715.0
2018-Jun-13 09:09S 33°50' E 017°39'314.8
2018-Jun-13 08:58S 33°52' E 017°41'715.0
2018-Jun-13 08:30S 33°57' E 017°46'815.1
2018-Jun-13 08:00S 34°03' E 017°52'714.9
2018-Jun-13 07:30S 34°09' E 017°58'714.6
2018-Jun-13 07:00S 34°15' E 018°03'714.8
2018-Jun-13 06:30S 34°21' E 018°09'714.2
2018-Jun-13 06:00S 34°26' E 018°15'714.6
2018-Jun-13 05:30S 34°29' E 018°23'714.8
2018-Jun-13 05:00S 34°32' E 018°31'714.6
2018-Jun-13 04:30S 34°36' E 018°39'714.3
2018-Jun-13 04:00S 34°39' E 018°46'713.9
2018-Jun-13 03:30S 34°42' E 018°54'713.9
2018-Jun-13 03:00S 34°45' E 019°01'714.1
2018-Jun-13 02:31S 34°48' E 019°09'714.5
2018-Jun-13 02:00S 34°51' E 019°17'714.6
2018-Jun-13 01:30S 34°54' E 019°25'  

Dump ship's entire track history